sensor_id;sensor_type;location;lat;lon;timestamp;pressure;altitude;pressure_sealevel;temperature;humidity
76644;BME280;65546;46.384;6.228;2022-12-07T17:09:20;96543.79;;;14.15;22.43
76644;BME280;65546;46.384;6.228;2022-12-07T17:11:45;96541.96;;;15.00;21.84
76644;BME280;65546;46.384;6.228;2022-12-07T17:14:11;96539.98;;;15.72;21.88
76644;BME280;65546;46.384;6.228;2022-12-07T17:16:36;96540.60;;;15.05;22.15
76644;BME280;65546;46.384;6.228;2022-12-07T17:19:03;96539.94;;;16.46;21.77
76644;BME280;65546;46.384;6.228;2022-12-07T17:21:27;96541.36;;;15.31;22.27
76644;BME280;65546;46.384;6.228;2022-12-07T17:23:52;96540.30;;;15.25;22.27
76644;BME280;65546;46.384;6.228;2022-12-07T17:26:24;96537.24;;;15.72;22.23
76644;BME280;65546;46.384;6.228;2022-12-07T17:28:44;96538.63;;;16.41;21.90
76644;BME280;65546;46.384;6.228;2022-12-07T17:31:11;96534.50;;;15.38;22.59
76644;BME280;65546;46.384;6.228;2022-12-07T17:33:35;96538.11;;;16.30;22.18
76644;BME280;65546;46.384;6.228;2022-12-07T17:36:00;96539.53;;;16.12;22.60
76644;BME280;65546;46.384;6.228;2022-12-07T17:38:27;96538.23;;;16.74;22.48
76644;BME280;65546;46.384;6.228;2022-12-07T17:40:50;96539.78;;;16.95;22.22
76644;BME280;65546;46.384;6.228;2022-12-07T17:43:16;96534.25;;;14.68;20.82
76644;BME280;65546;46.384;6.228;2022-12-07T17:45:42;96529.68;;;15.99;19.58
76644;BME280;65546;46.384;6.228;2022-12-07T17:48:07;96527.89;;;15.99;20.08
76644;BME280;65546;46.384;6.228;2022-12-07T17:50:32;96526.23;;;16.00;20.29
76644;BME280;65546;46.384;6.228;2022-12-07T17:52:58;96521.80;;;15.74;20.83
76644;BME280;65546;46.384;6.228;2022-12-07T17:55:24;96521.09;;;15.69;21.03
76644;BME280;65546;46.384;6.228;2022-12-07T17:57:48;96519.37;;;15.43;21.71
76644;BME280;65546;46.384;6.228;2022-12-07T18:00:15;96515.19;;;16.01;22.04
76644;BME280;65546;46.384;6.228;2022-12-07T18:02:39;96512.46;;;15.17;22.70
76644;BME280;65546;46.384;6.228;2022-12-07T18:05:06;96507.33;;;17.22;22.06
76644;BME280;65546;46.384;6.228;2022-12-07T18:07:30;96504.76;;;17.27;21.83
76644;BME280;65546;46.384;6.228;2022-12-07T18:09:56;96506.33;;;17.57;21.72
76644;BME280;65546;46.384;6.228;2022-12-07T18:12:22;96507.32;;;15.95;22.75
76644;BME280;65546;46.384;6.228;2022-12-07T18:14:48;96506.48;;;16.58;22.59
76644;BME280;65546;46.384;6.228;2022-12-07T18:17:12;96502.47;;;16.86;22.29
76644;BME280;65546;46.384;6.228;2022-12-07T18:19:38;96505.03;;;16.85;22.77
76644;BME280;65546;46.384;6.228;2022-12-07T18:22:04;96505.10;;;18.09;21.94
76644;BME280;65546;46.384;6.228;2022-12-07T18:24:30;96504.07;;;17.06;22.72
76644;BME280;65546;46.384;6.228;2022-12-07T18:26:54;96507.12;;;16.59;22.77
76644;BME280;65546;46.384;6.228;2022-12-07T18:29:20;96508.65;;;15.93;23.20
76644;BME280;65546;46.384;6.228;2022-12-07T18:31:46;96505.31;;;16.95;22.57
76644;BME280;65546;46.384;6.228;2022-12-07T18:34:13;96503.53;;;16.56;22.74
76644;BME280;65546;46.384;6.228;2022-12-07T18:36:37;96501.39;;;16.67;22.51
76644;BME280;65546;46.384;6.228;2022-12-07T18:39:03;96497.77;;;16.68;22.58
76644;BME280;65546;46.384;6.228;2022-12-07T18:41:27;96499.23;;;16.22;23.02
76644;BME280;65546;46.384;6.228;2022-12-07T18:43:52;96496.52;;;16.46;22.99
76644;BME280;65546;46.384;6.228;2022-12-07T18:46:19;96491.94;;;16.38;23.07
76644;BME280;65546;46.384;6.228;2022-12-07T18:48:44;96494.88;;;16.77;22.72
76644;BME280;65546;46.384;6.228;2022-12-07T18:51:10;96495.68;;;17.50;22.77
76644;BME280;65546;46.384;6.228;2022-12-07T18:53:35;96500.44;;;17.39;22.62
76644;BME280;65546;46.384;6.228;2022-12-07T18:56:01;96496.27;;;16.83;23.06
76644;BME280;65546;46.384;6.228;2022-12-07T18:58:25;96492.82;;;16.73;23.02
76644;BME280;65546;46.384;6.228;2022-12-07T19:00:50;96488.35;;;17.35;22.80
76644;BME280;65546;46.384;6.228;2022-12-07T19:03:16;96489.57;;;16.77;23.06
76644;BME280;65546;46.384;6.228;2022-12-07T19:05:42;96491.02;;;16.45;22.94
76644;BME280;65546;46.384;6.228;2022-12-07T19:08:07;96491.39;;;16.28;23.35
76644;BME280;65546;46.384;6.228;2022-12-07T19:10:33;96491.08;;;17.33;22.82
76644;BME280;65546;46.384;6.228;2022-12-07T19:12:58;96489.50;;;17.59;22.41
76644;BME280;65546;46.384;6.228;2022-12-07T19:15:23;96484.57;;;16.55;22.99
76644;BME280;65546;46.384;6.228;2022-12-07T19:17:48;96484.91;;;16.90;22.86
76644;BME280;65546;46.384;6.228;2022-12-07T19:20:14;96483.14;;;16.56;23.04
76644;BME280;65546;46.384;6.228;2022-12-07T19:22:39;96486.02;;;17.40;22.59
76644;BME280;65546;46.384;6.228;2022-12-07T19:25:06;96480.37;;;17.58;22.40
76644;BME280;65546;46.384;6.228;2022-12-07T19:27:31;96477.35;;;17.82;22.53
76644;BME280;65546;46.384;6.228;2022-12-07T19:29:57;96476.92;;;18.07;22.14
76644;BME280;65546;46.384;6.228;2022-12-07T19:32:22;96475.05;;;18.32;22.32
76644;BME280;65546;46.384;6.228;2022-12-07T19:34:47;96477.50;;;18.39;22.44
76644;BME280;65546;46.384;6.228;2022-12-07T19:37:13;96480.80;;;17.04;23.31
76644;BME280;65546;46.384;6.228;2022-12-07T19:39:40;96475.26;;;17.56;22.68
76644;BME280;65546;46.384;6.228;2022-12-07T19:42:04;96478.87;;;17.24;23.25
76644;BME280;65546;46.384;6.228;2022-12-07T19:44:29;96469.09;;;17.69;23.07
76644;BME280;65546;46.384;6.228;2022-12-07T19:46:57;96467.86;;;17.77;22.90
76644;BME280;65546;46.384;6.228;2022-12-07T19:49:23;96468.31;;;17.23;23.05
76644;BME280;65546;46.384;6.228;2022-12-07T19:51:48;96471.69;;;16.91;23.50
76644;BME280;65546;46.384;6.228;2022-12-07T19:54:13;96471.79;;;17.37;23.29
76644;BME280;65546;46.384;6.228;2022-12-07T19:56:37;96471.30;;;16.59;23.61
76644;BME280;65546;46.384;6.228;2022-12-07T19:59:03;96469.17;;;16.66;23.63
76644;BME280;65546;46.384;6.228;2022-12-07T20:01:28;96465.87;;;16.88;23.60
76644;BME280;65546;46.384;6.228;2022-12-07T20:03:53;96461.89;;;17.23;23.54
76644;BME280;65546;46.384;6.228;2022-12-07T20:06:19;96462.78;;;17.21;23.52
76644;BME280;65546;46.384;6.228;2022-12-07T20:08:46;96458.44;;;16.57;23.80
76644;BME280;65546;46.384;6.228;2022-12-07T20:11:10;96455.40;;;16.77;23.90
76644;BME280;65546;46.384;6.228;2022-12-07T20:13:35;96448.97;;;18.25;23.15
76644;BME280;65546;46.384;6.228;2022-12-07T20:16:02;96450.48;;;16.80;23.97
76644;BME280;65546;46.384;6.228;2022-12-07T20:18:27;96447.18;;;16.63;24.07
76644;BME280;65546;46.384;6.228;2022-12-07T20:20:52;96444.78;;;16.56;23.96
76644;BME280;65546;46.384;6.228;2022-12-07T20:23:17;96445.10;;;16.62;24.06
76644;BME280;65546;46.384;6.228;2022-12-07T20:25:43;96449.20;;;16.50;23.98
76644;BME280;65546;46.384;6.228;2022-12-07T20:28:08;96446.83;;;17.13;23.78
76644;BME280;65546;46.384;6.228;2022-12-07T20:30:34;96444.27;;;16.31;24.09
76644;BME280;65546;46.384;6.228;2022-12-07T20:32:59;96438.82;;;17.10;23.80
76644;BME280;65546;46.384;6.228;2022-12-07T20:35:24;96435.96;;;16.51;24.06
76644;BME280;65546;46.384;6.228;2022-12-07T20:37:50;96431.02;;;16.97;23.82
76644;BME280;65546;46.384;6.228;2022-12-07T20:40:15;96422.74;;;17.62;23.23
76644;BME280;65546;46.384;6.228;2022-12-07T20:42:40;96423.36;;;18.93;22.86
76644;BME280;65546;46.384;6.228;2022-12-07T20:45:06;96421.57;;;17.97;23.07
76644;BME280;65546;46.384;6.228;2022-12-07T20:47:31;96426.39;;;17.90;23.37
76644;BME280;65546;46.384;6.228;2022-12-07T20:49:56;96418.30;;;18.23;23.11
76644;BME280;65546;46.384;6.228;2022-12-07T20:52:22;96415.62;;;18.65;22.86
76644;BME280;65546;46.384;6.228;2022-12-07T20:54:47;96414.66;;;18.33;23.06
76644;BME280;65546;46.384;6.228;2022-12-07T20:57:13;96411.03;;;18.77;22.98
76644;BME280;65546;46.384;6.228;2022-12-07T20:59:38;96407.08;;;18.55;22.99
76644;BME280;65546;46.384;6.228;2022-12-07T21:02:04;96404.39;;;18.42;23.22
76644;BME280;65546;46.384;6.228;2022-12-07T21:04:30;96405.42;;;18.34;23.40
76644;BME280;65546;46.384;6.228;2022-12-07T21:06:55;96404.21;;;18.16;23.58
76644;BME280;65546;46.384;6.228;2022-12-07T21:09:20;96405.18;;;18.01;24.03
76644;BME280;65546;46.384;6.228;2022-12-07T21:11:46;96399.13;;;18.80;23.59
76644;BME280;65546;46.384;6.228;2022-12-07T21:14:12;96397.98;;;18.41;23.99
76644;BME280;65546;46.384;6.228;2022-12-07T21:16:37;96397.14;;;18.63;23.88
76644;BME280;65546;46.384;6.228;2022-12-07T21:19:03;96400.15;;;18.66;24.04
76644;BME280;65546;46.384;6.228;2022-12-07T21:21:29;96399.02;;;18.35;24.44
76644;BME280;65546;46.384;6.228;2022-12-07T21:23:54;96399.87;;;18.91;23.98
76644;BME280;65546;46.384;6.228;2022-12-07T21:26:21;96403.68;;;18.75;24.33
76644;BME280;65546;46.384;6.228;2022-12-07T21:28:44;96404.36;;;18.45;24.57
76644;BME280;65546;46.384;6.228;2022-12-07T21:31:10;96405.81;;;18.14;24.58
76644;BME280;65546;46.384;6.228;2022-12-07T21:33:36;96403.01;;;18.40;24.44
76644;BME280;65546;46.384;6.228;2022-12-07T21:36:02;96402.36;;;18.96;24.24
76644;BME280;65546;46.384;6.228;2022-12-07T21:38:26;96402.68;;;18.87;24.43
76644;BME280;65546;46.384;6.228;2022-12-07T21:40:52;96403.41;;;18.46;24.68
76644;BME280;65546;46.384;6.228;2022-12-07T21:43:17;96403.08;;;19.34;24.25
76644;BME280;65546;46.384;6.228;2022-12-07T21:45:49;96403.57;;;19.13;24.42
76644;BME280;65546;46.384;6.228;2022-12-07T21:48:08;96401.46;;;18.57;24.69
76644;BME280;65546;46.384;6.228;2022-12-07T21:50:34;96400.13;;;18.99;24.57
76644;BME280;65546;46.384;6.228;2022-12-07T21:52:59;96402.93;;;19.03;24.51
76644;BME280;65546;46.384;6.228;2022-12-07T21:55:25;96402.04;;;18.96;24.40
76644;BME280;65546;46.384;6.228;2022-12-07T21:57:50;96403.52;;;18.33;24.72
76644;BME280;65546;46.384;6.228;2022-12-07T22:00:17;96404.77;;;18.53;24.89
76644;BME280;65546;46.384;6.228;2022-12-07T22:02:41;96405.77;;;18.45;24.87
76644;BME280;65546;46.384;6.228;2022-12-07T22:05:07;96406.09;;;18.24;25.09
76644;BME280;65546;46.384;6.228;2022-12-07T22:07:32;96404.35;;;18.28;24.93
76644;BME280;65546;46.384;6.228;2022-12-07T22:09:58;96401.82;;;18.44;25.05
76644;BME280;65546;46.384;6.228;2022-12-07T22:12:24;96399.53;;;18.23;25.05
76644;BME280;65546;46.384;6.228;2022-12-07T22:14:49;96396.85;;;18.06;25.18
76644;BME280;65546;46.384;6.228;2022-12-07T22:17:15;96392.04;;;17.98;25.16
76644;BME280;65546;46.384;6.228;2022-12-07T22:19:40;96391.62;;;18.21;25.10
76644;BME280;65546;46.384;6.228;2022-12-07T22:22:05;96390.61;;;18.26;25.03
76644;BME280;65546;46.384;6.228;2022-12-07T22:24:31;96391.20;;;18.19;25.05
76644;BME280;65546;46.384;6.228;2022-12-07T22:26:57;96388.69;;;18.30;25.15
76644;BME280;65546;46.384;6.228;2022-12-07T22:29:23;96388.89;;;17.50;25.53
76644;BME280;65546;46.384;6.228;2022-12-07T22:31:47;96389.66;;;17.10;25.51
76644;BME280;65546;46.384;6.228;2022-12-07T22:34:14;96392.84;;;17.54;25.34
76644;BME280;65546;46.384;6.228;2022-12-07T22:36:37;96391.01;;;17.59;25.36
76644;BME280;65546;46.384;6.228;2022-12-07T22:39:03;96390.15;;;17.17;25.38
76644;BME280;65546;46.384;6.228;2022-12-07T22:41:30;96387.28;;;17.09;25.18
76644;BME280;65546;46.384;6.228;2022-12-07T22:43:54;96387.25;;;17.21;25.15
76644;BME280;65546;46.384;6.228;2022-12-07T22:46:19;96387.51;;;17.32;25.15
76644;BME280;65546;46.384;6.228;2022-12-07T22:48:44;96388.34;;;17.28;25.08
76644;BME280;65546;46.384;6.228;2022-12-07T22:51:18;96386.39;;;17.45;24.97
76644;BME280;65546;46.384;6.228;2022-12-07T22:53:34;96388.20;;;16.96;25.29
76644;BME280;65546;46.384;6.228;2022-12-07T22:55:59;96389.46;;;17.09;25.19
76644;BME280;65546;46.384;6.228;2022-12-07T22:58:25;96388.70;;;17.44;25.24
76644;BME280;65546;46.384;6.228;2022-12-07T23:00:50;96386.76;;;17.71;25.02
76644;BME280;65546;46.384;6.228;2022-12-07T23:03:16;96388.60;;;17.19;25.03
76644;BME280;65546;46.384;6.228;2022-12-07T23:05:42;96386.99;;;17.21;25.03
76644;BME280;65546;46.384;6.228;2022-12-07T23:08:07;96389.10;;;17.27;25.02
76644;BME280;65546;46.384;6.228;2022-12-07T23:10:33;96391.27;;;16.98;25.19
76644;BME280;65546;46.384;6.228;2022-12-07T23:12:58;96388.35;;;17.04;25.31
76644;BME280;65546;46.384;6.228;2022-12-07T23:15:24;96387.20;;;16.72;25.11
76644;BME280;65546;46.384;6.228;2022-12-07T23:17:49;96384.51;;;16.99;25.02
76644;BME280;65546;46.384;6.228;2022-12-07T23:20:15;96382.33;;;16.88;24.83
76644;BME280;65546;46.384;6.228;2022-12-07T23:22:41;96375.63;;;16.76;24.91
76644;BME280;65546;46.384;6.228;2022-12-07T23:25:06;96375.73;;;16.84;24.63
76644;BME280;65546;46.384;6.228;2022-12-07T23:27:31;96376.88;;;16.06;25.01
76644;BME280;65546;46.384;6.228;2022-12-07T23:29:56;96374.09;;;16.13;25.16
76644;BME280;65546;46.384;6.228;2022-12-07T23:32:22;96374.29;;;16.46;24.83
76644;BME280;65546;46.384;6.228;2022-12-07T23:34:47;96369.49;;;15.74;25.35
76644;BME280;65546;46.384;6.228;2022-12-07T23:37:12;96369.44;;;16.16;25.20
76644;BME280;65546;46.384;6.228;2022-12-07T23:39:37;96366.50;;;15.79;25.31
76644;BME280;65546;46.384;6.228;2022-12-07T23:42:03;96367.61;;;15.73;25.36
76644;BME280;65546;46.384;6.228;2022-12-07T23:44:28;96369.43;;;15.54;25.39
76644;BME280;65546;46.384;6.228;2022-12-07T23:46:53;96363.48;;;15.34;25.58
76644;BME280;65546;46.384;6.228;2022-12-07T23:49:18;96362.93;;;15.19;25.39
76644;BME280;65546;46.384;6.228;2022-12-07T23:51:44;96364.40;;;15.41;25.45
76644;BME280;65546;46.384;6.228;2022-12-07T23:54:10;96362.42;;;15.62;25.38
76644;BME280;65546;46.384;6.228;2022-12-07T23:56:35;96358.03;;;15.56;25.46
76644;BME280;65546;46.384;6.228;2022-12-07T23:59:01;96355.23;;;15.50;25.62
